Millington, Tennessee
Current Conditions -  °F | °C
As of 4:55 AM on Monday 24 Nov 2014 (Local Time) from KNQA Reporting Station
Overcast Overcast  
Wind Chill: 50°   Ceiling: 2400
Heat Index: 50°   Visibility: 9mi
Dew Point: 46°   Wind: 18mph
Humidity: 87%   Direction: 270°W
Pressure: 29.62"   Gusts: NA
Location:  35.34°N, 89.9°W
Report Text: KNQA 241055Z AUTO 27016KT 9SM FEW016 BKN024 OVC029 10/08 A2962 RMK
Loading
Personal Weather Stations






























Interactive Weather Map New forecast layout! Learn more

10-Day Weather Forecast

Advertisements
Track Severe Weather on mobile